createdAt,value
2023-04-22T00:01:13.541Z,26.23
2023-04-22T00:03:42.234Z,27.02
2023-04-22T00:06:08.840Z,27.33
2023-04-22T00:08:35.331Z,25.98
2023-04-22T00:11:02.041Z,27.08
2023-04-22T00:13:28.437Z,27.35
2023-04-22T00:15:54.864Z,26.77
2023-04-22T00:18:21.886Z,28.92
2023-04-22T00:20:48.329Z,26.65
2023-04-22T00:23:14.694Z,27.33
2023-04-22T00:25:41.304Z,31.00
2023-04-22T00:28:08.000Z,25.50
2023-04-22T00:30:35.292Z,24.75
2023-04-22T00:33:01.668Z,25.83
2023-04-22T00:35:28.105Z,25.58
2023-04-22T00:37:54.632Z,26.40
2023-04-22T00:40:21.792Z,26.42
2023-04-22T00:42:50.674Z,27.05
2023-04-22T00:45:18.978Z,27.73
2023-04-22T00:47:46.333Z,27.92
2023-04-22T00:50:13.404Z,26.00
2023-04-22T00:52:39.841Z,24.45
2023-04-22T00:55:06.789Z,26.80
2023-04-22T00:57:35.838Z,28.40
2023-04-22T01:00:03.508Z,32.38
2023-04-22T01:02:30.343Z,32.15
2023-04-22T01:04:56.964Z,33.17
2023-04-22T01:07:23.464Z,30.13
2023-04-22T01:09:49.844Z,30.08
2023-04-22T01:12:16.286Z,32.78
2023-04-22T01:14:42.690Z,33.22
2023-04-22T01:17:10.601Z,33.47
2023-04-22T01:19:37.745Z,34.20
2023-04-22T01:22:05.804Z,36.28
2023-04-22T01:24:33.556Z,42.42
2023-04-22T01:27:00.045Z,41.22
2023-04-22T01:29:26.792Z,41.55
2023-04-22T01:31:53.867Z,38.10
2023-04-22T01:34:20.437Z,43.75
2023-04-22T01:36:46.808Z,47.28
2023-04-22T01:39:13.312Z,47.13
2023-04-22T01:41:39.743Z,50.45
2023-04-22T01:44:06.118Z,53.85
2023-04-22T01:46:33.446Z,56.08
2023-04-22T01:48:59.920Z,56.47
2023-04-22T01:51:26.265Z,60.17
2023-04-22T01:53:52.952Z,67.05
2023-04-22T01:56:19.332Z,65.43
2023-04-22T01:58:45.717Z,63.63
2023-04-22T02:01:13.005Z,60.63
2023-04-22T02:03:39.659Z,61.03
2023-04-22T02:06:06.256Z,59.95
2023-04-22T02:08:32.667Z,63.83
2023-04-22T02:11:00.773Z,60.95
2023-04-22T02:13:34.823Z,56.10
2023-04-22T02:16:01.224Z,58.47
2023-04-22T02:18:27.622Z,59.25
2023-04-22T02:20:54.012Z,57.97
2023-04-22T02:23:20.681Z,61.38
2023-04-22T02:25:50.896Z,57.70
2023-04-22T02:28:18.105Z,59.05
2023-04-22T02:30:47.584Z,56.88
2023-04-22T02:33:13.966Z,54.92
2023-04-22T02:35:40.269Z,59.67
2023-04-22T02:38:06.625Z,59.20
2023-04-22T02:40:32.941Z,57.55
2023-04-22T02:42:59.369Z,57.15
2023-04-22T02:45:25.796Z,57.13
2023-04-22T02:47:52.175Z,59.85
2023-04-22T02:50:18.716Z,59.60
2023-04-22T02:52:45.197Z,58.55
2023-04-22T02:55:11.595Z,57.97
2023-04-22T02:57:37.968Z,57.72
2023-04-22T03:00:04.957Z,57.65
2023-04-22T03:02:31.460Z,53.72
2023-04-22T03:04:57.969Z,55.30
2023-04-22T03:07:24.347Z,56.88
2023-04-22T03:09:50.660Z,55.67
2023-04-22T03:12:16.976Z,54.88
2023-04-22T03:14:43.424Z,57.33
2023-04-22T03:17:09.772Z,58.67
2023-04-22T03:19:36.237Z,55.20
2023-04-22T03:22:02.614Z,59.95
2023-04-22T03:24:28.928Z,61.95
2023-04-22T03:26:55.258Z,58.38
2023-04-22T03:29:21.662Z,59.55
2023-04-22T03:31:48.098Z,57.28
2023-04-22T03:34:14.495Z,57.10
2023-04-22T03:36:41.282Z,57.33
2023-04-22T03:39:08.253Z,55.88
2023-04-22T03:41:34.894Z,59.15
2023-04-22T03:44:01.919Z,57.33
2023-04-22T03:46:28.585Z,56.15
2023-04-22T03:48:54.990Z,53.72
2023-04-22T03:51:21.350Z,55.20
2023-04-22T03:53:47.677Z,56.78
2023-04-22T03:56:14.073Z,57.15
2023-04-22T03:58:40.424Z,58.72
2023-04-22T04:01:07.817Z,60.30
2023-04-22T04:03:34.505Z,63.88
2023-04-22T04:06:01.273Z,61.05
2023-04-22T04:08:27.821Z,62.40
2023-04-22T04:10:54.192Z,64.03
2023-04-22T04:13:20.531Z,61.78
2023-04-22T04:15:47.191Z,63.38
2023-04-22T04:18:13.730Z,63.63
2023-04-22T04:20:40.219Z,63.50
2023-04-22T04:23:06.612Z,65.25
2023-04-22T04:25:38.199Z,66.55
2023-04-22T04:28:09.259Z,64.82
2023-04-22T04:30:36.665Z,62.35
2023-04-22T04:33:07.164Z,60.33
2023-04-22T04:35:34.751Z,60.58
2023-04-22T04:38:02.024Z,64.80
2023-04-22T04:40:31.356Z,64.30
2023-04-22T04:42:57.762Z,63.90
2023-04-22T04:45:24.825Z,64.25
2023-04-22T04:47:52.872Z,65.80
2023-04-22T04:50:22.525Z,65.45
2023-04-22T04:52:49.106Z,64.80
2023-04-22T04:55:16.303Z,64.10
2023-04-22T04:57:44.836Z,62.53
2023-04-22T05:00:12.252Z,63.88
2023-04-22T05:02:38.730Z,59.95
2023-04-22T05:05:06.600Z,60.38
2023-04-22T05:07:33.038Z,59.13
2023-04-22T05:10:00.788Z,61.20
2023-04-22T05:12:27.165Z,62.72
2023-04-22T05:14:53.498Z,59.95
2023-04-22T05:17:20.740Z,61.63
2023-04-22T05:19:47.191Z,60.40
2023-04-22T05:22:13.636Z,60.05
2023-04-22T05:24:39.946Z,61.58
2023-04-22T05:27:06.777Z,58.17
2023-04-22T05:29:33.158Z,55.17
2023-04-22T05:31:59.565Z,56.20
2023-04-22T05:34:26.011Z,56.80
2023-04-22T05:36:52.574Z,54.75
2023-04-22T05:39:20.073Z,54.72
2023-04-22T05:41:47.159Z,54.15
2023-04-22T05:44:13.660Z,55.92
2023-04-22T05:46:40.440Z,55.92
2023-04-22T05:49:06.813Z,53.38
2023-04-22T05:51:33.368Z,50.33
2023-04-22T05:53:59.704Z,53.05
2023-04-22T05:56:26.144Z,49.88
2023-04-22T05:58:52.568Z,47.58
2023-04-22T06:01:19.019Z,49.35
2023-04-22T06:03:45.480Z,50.13
2023-04-22T06:06:11.918Z,50.10
2023-04-22T06:08:38.308Z,50.97
2023-04-22T06:11:04.760Z,50.10
2023-04-22T06:13:31.134Z,49.28
2023-04-22T06:15:57.733Z,52.63
2023-04-22T06:18:24.852Z,52.60
2023-04-22T06:20:52.321Z,52.20
2023-04-22T06:23:18.667Z,49.20
2023-04-22T06:25:45.148Z,52.45
2023-04-22T06:28:11.495Z,53.92
2023-04-22T06:30:37.816Z,56.78
2023-04-22T06:33:04.175Z,54.63
2023-04-22T06:35:31.370Z,49.58
2023-04-22T06:37:57.743Z,48.58
2023-04-22T06:40:24.204Z,52.67
2023-04-22T06:42:50.555Z,49.65
2023-04-22T06:45:16.884Z,56.03
2023-04-22T06:47:43.285Z,54.25
2023-04-22T06:50:10.349Z,54.15
2023-04-22T06:52:36.720Z,46.00
2023-04-22T06:55:03.664Z,48.63
2023-04-22T06:57:30.817Z,46.17
2023-04-22T06:59:57.231Z,45.38
2023-04-22T07:02:23.618Z,44.80
2023-04-22T07:04:50.106Z,39.95
2023-04-22T07:07:16.502Z,37.58
2023-04-22T07:09:42.905Z,33.13
2023-04-22T07:12:09.272Z,35.03
2023-04-22T07:14:35.678Z,34.50
2023-04-22T07:17:02.027Z,35.67
2023-04-22T07:19:28.524Z,36.40
2023-04-22T07:21:54.863Z,35.70
2023-04-22T07:24:21.258Z,36.13
2023-04-22T07:26:47.692Z,31.88
2023-04-22T07:29:14.095Z,30.38
2023-04-22T07:31:40.493Z,31.77
2023-04-22T07:34:07.124Z,30.73
2023-04-22T07:36:33.639Z,29.45
2023-04-22T07:39:00.171Z,31.20
2023-04-22T07:41:26.532Z,29.50
2023-04-22T07:43:52.908Z,31.67
2023-04-22T07:46:22.080Z,25.17
2023-04-22T07:48:48.801Z,29.95
2023-04-22T07:51:15.197Z,30.70
2023-04-22T07:53:42.252Z,29.40
2023-04-22T07:56:08.926Z,32.05
2023-04-22T07:58:35.519Z,32.88
2023-04-22T08:01:02.049Z,34.70
2023-04-22T08:03:28.609Z,26.52
2023-04-22T08:05:58.104Z,25.48
2023-04-22T08:08:26.436Z,32.20
2023-04-22T08:10:52.806Z,39.00
2023-04-22T08:13:19.186Z,36.13
2023-04-22T08:15:45.670Z,31.75
2023-04-22T08:18:12.120Z,29.30
2023-04-22T08:20:38.481Z,36.58
2023-04-22T08:23:06.907Z,31.75
2023-04-22T08:25:34.664Z,27.50
2023-04-22T08:28:01.159Z,27.10
2023-04-22T08:30:27.594Z,24.50
2023-04-22T08:32:54.037Z,25.65
2023-04-22T08:35:20.801Z,23.73
2023-04-22T08:37:47.248Z,23.83
2023-04-22T08:40:13.661Z,21.90
2023-04-22T08:42:40.086Z,23.48
2023-04-22T08:45:06.699Z,25.00
2023-04-22T08:47:34.971Z,22.50
2023-04-22T08:50:06.241Z,21.20
2023-04-22T08:52:32.987Z,18.90
2023-04-22T08:54:59.790Z,20.10
2023-04-22T08:57:26.720Z,19.08
2023-04-22T08:59:56.082Z,19.00
2023-04-22T09:02:24.615Z,19.60
2023-04-22T09:04:53.521Z,18.23
2023-04-22T09:07:26.901Z,15.70
2023-04-22T09:09:55.387Z,12.87
2023-04-22T09:12:22.208Z,11.95
2023-04-22T09:14:48.851Z,12.68
2023-04-22T09:17:29.358Z,10.63
2023-04-22T09:20:00.245Z,10.80
2023-04-22T09:22:38.302Z,10.07
2023-04-22T09:25:05.129Z,9.93
2023-04-22T09:27:31.618Z,11.52
2023-04-22T09:29:57.964Z,10.50
2023-04-22T09:32:26.019Z,9.32
2023-04-22T09:34:54.276Z,8.75
2023-04-22T09:37:25.132Z,10.10
2023-04-22T09:39:54.098Z,9.05
2023-04-22T09:42:21.872Z,9.50
2023-04-22T09:44:53.160Z,9.80
2023-04-22T09:47:20.698Z,12.07
2023-04-22T09:49:49.160Z,14.60
2023-04-22T09:52:27.055Z,14.57
2023-04-22T09:54:54.299Z,14.95
2023-04-22T09:57:21.688Z,13.10
2023-04-22T09:59:51.702Z,12.07
2023-04-22T10:02:18.135Z,12.63
2023-04-22T10:04:45.496Z,14.90
2023-04-22T10:07:14.215Z,15.73
2023-04-22T10:09:41.218Z,13.60
2023-04-22T10:12:07.807Z,11.80
2023-04-22T10:14:34.159Z,15.07
2023-04-22T10:17:03.345Z,14.02
2023-04-22T10:19:31.521Z,9.13
2023-04-22T10:22:02.728Z,6.85
2023-04-22T10:24:35.488Z,7.20
2023-04-22T10:27:08.374Z,8.65
2023-04-22T10:29:38.849Z,7.88
2023-04-22T10:32:24.441Z,9.55
2023-04-22T10:35:07.454Z,10.50
2023-04-22T10:37:34.005Z,13.05
2023-04-22T10:40:16.626Z,11.82
2023-04-22T10:42:49.645Z,11.18
2023-04-22T10:45:16.113Z,10.88
2023-04-22T10:47:43.029Z,14.50
2023-04-22T10:50:09.569Z,14.25
2023-04-22T10:52:38.845Z,14.32
2023-04-22T10:55:05.788Z,10.93
2023-04-22T10:57:38.176Z,10.30
2023-04-22T11:00:22.856Z,12.13
2023-04-22T11:05:43.755Z,10.75
2023-04-22T11:08:20.788Z,8.82
2023-04-22T11:10:49.967Z,8.00
2023-04-22T11:13:21.291Z,7.28
2023-04-22T11:15:55.841Z,5.53
2023-04-22T11:20:51.565Z,7.10
2023-04-22T11:23:26.445Z,5.03
2023-04-22T11:25:58.016Z,5.28
2023-04-22T11:28:24.567Z,6.63
2023-04-22T11:30:51.507Z,6.95
2023-04-22T11:33:20.589Z,7.53
2023-04-22T11:35:50.444Z,5.97
2023-04-22T11:38:16.958Z,6.03
2023-04-22T11:40:46.364Z,5.97
2023-04-22T11:43:13.619Z,5.03
2023-04-22T11:45:40.489Z,5.00
2023-04-22T11:48:08.694Z,5.22
2023-04-22T11:50:37.830Z,5.28
2023-04-22T11:53:13.196Z,4.50
2023-04-22T11:55:41.350Z,5.30
2023-04-22T11:58:14.542Z,5.25
2023-04-22T12:00:49.166Z,6.97
2023-04-22T12:03:18.143Z,7.13
2023-04-22T12:05:59.776Z,6.47
2023-04-22T12:08:30.617Z,7.00
2023-04-22T12:11:06.108Z,6.68
2023-04-22T12:13:38.726Z,6.80
2023-04-22T12:16:09.696Z,6.90
2023-04-22T12:18:41.495Z,7.45
2023-04-22T12:21:11.280Z,7.40
2023-04-22T12:23:44.996Z,7.13
2023-04-22T12:26:12.968Z,7.50
2023-04-22T12:28:40.261Z,7.72
2023-04-22T12:31:07.132Z,8.73
2023-04-22T12:33:34.021Z,9.20
2023-04-22T12:36:00.427Z,10.10
2023-04-22T12:38:26.850Z,9.93
2023-04-22T12:40:53.861Z,9.75
2023-04-22T12:43:20.264Z,9.43
2023-04-22T12:45:47.010Z,10.15
2023-04-22T12:48:13.531Z,11.35
2023-04-22T12:50:40.819Z,11.60
2023-04-22T12:53:07.245Z,12.15
2023-04-22T12:55:34.154Z,12.88
2023-04-22T12:58:01.264Z,12.07
2023-04-22T13:00:27.932Z,10.98
2023-04-22T13:02:54.506Z,12.13
2023-04-22T13:05:20.964Z,13.43
2023-04-22T13:07:56.298Z,12.80
2023-04-22T13:10:30.280Z,10.25
2023-04-22T13:13:09.726Z,10.18
2023-04-22T13:15:43.385Z,8.93
2023-04-22T13:18:09.893Z,10.70
2023-04-22T13:20:36.734Z,12.57
2023-04-22T13:23:05.641Z,9.73
2023-04-22T13:25:32.098Z,9.10
2023-04-22T13:27:58.507Z,8.43
2023-04-22T13:30:24.913Z,8.55
2023-04-22T13:32:52.149Z,8.50
2023-04-22T13:35:18.632Z,9.95
2023-04-22T13:37:46.198Z,10.75
2023-04-22T13:40:13.025Z,11.15
2023-04-22T13:42:39.408Z,10.35
2023-04-22T13:45:06.984Z,13.70
2023-04-22T13:47:33.375Z,21.95
2023-04-22T13:50:00.780Z,25.70
2023-04-22T13:52:27.592Z,33.72
2023-04-22T13:54:54.299Z,28.42
2023-04-22T13:57:20.797Z,43.33
2023-04-22T13:59:47.272Z,29.77
2023-04-22T14:02:13.764Z,25.50
2023-04-22T14:04:40.201Z,24.88
2023-04-22T14:07:06.933Z,26.65
2023-04-22T14:09:34.562Z,23.35
2023-04-22T14:12:01.262Z,22.92
2023-04-22T14:14:27.742Z,22.92
2023-04-22T14:16:54.398Z,18.00
2023-04-22T14:19:21.212Z,19.00
2023-04-22T14:21:47.611Z,20.60
2023-04-22T14:24:14.423Z,18.80
2023-04-22T14:26:41.234Z,15.48
2023-04-22T14:29:07.968Z,15.52
2023-04-22T14:50:51.291Z,9.48
2023-04-22T14:53:19.939Z,14.80
2023-04-22T14:55:46.401Z,18.08
2023-04-22T14:58:12.901Z,19.48
2023-04-22T15:00:39.674Z,17.33
2023-04-22T15:03:06.179Z,14.23
2023-04-22T15:05:32.683Z,14.98
2023-04-22T15:07:59.107Z,14.18
2023-04-22T15:10:26.509Z,11.35
2023-04-22T15:12:53.413Z,11.13
2023-04-22T15:15:20.011Z,11.90
2023-04-22T15:17:46.517Z,12.68
2023-04-22T15:20:13.702Z,11.48
2023-04-22T15:22:43.305Z,11.98
2023-04-22T15:25:10.633Z,12.02
2023-04-22T15:27:38.395Z,10.63
2023-04-22T15:30:06.245Z,12.15
2023-04-22T15:32:32.799Z,12.10
2023-04-22T15:34:59.215Z,12.48
2023-04-22T15:37:25.931Z,12.40
2023-04-22T15:39:52.330Z,12.35
2023-04-22T15:42:18.775Z,12.65
2023-04-22T15:44:45.165Z,11.15
2023-04-22T15:47:11.788Z,10.57
2023-04-22T15:49:38.736Z,17.73
2023-04-22T15:52:05.422Z,29.75
2023-04-22T15:54:31.933Z,42.60
2023-04-22T15:56:58.285Z,65.82
2023-04-22T15:59:24.681Z,113.22
2023-04-22T16:01:51.171Z,80.32
2023-04-22T16:04:18.975Z,84.75
2023-04-22T16:06:46.162Z,108.47
2023-04-22T16:09:13.012Z,115.28
2023-04-22T16:11:39.390Z,166.55
2023-04-22T16:14:05.992Z,283.38
2023-04-22T16:16:32.691Z,331.60
2023-04-22T16:19:00.183Z,415.95
2023-04-22T16:21:26.589Z,461.08
2023-04-22T16:23:52.983Z,538.13
2023-04-22T16:26:19.676Z,628.58
2023-04-22T16:28:46.859Z,654.83
2023-04-22T16:31:13.607Z,665.92
2023-04-22T16:33:40.098Z,681.90
2023-04-22T16:36:08.731Z,722.70
2023-04-22T16:38:35.080Z,700.95
2023-04-22T16:41:01.527Z,719.05
2023-04-22T16:43:28.388Z,752.00
2023-04-22T16:45:54.822Z,746.70
2023-04-22T16:48:21.237Z,736.20
2023-04-22T16:50:47.892Z,736.22
2023-04-22T16:53:14.277Z,736.42
2023-04-22T16:55:41.526Z,740.97
2023-04-22T16:58:08.040Z,722.97
2023-04-22T17:00:34.550Z,708.10
2023-04-22T17:03:01.112Z,720.40
2023-04-22T17:05:27.619Z,733.28
2023-04-22T17:07:54.015Z,708.97
2023-04-22T17:10:22.033Z,725.58
2023-04-22T17:12:48.452Z,723.78
2023-04-22T17:15:15.216Z,670.08
2023-04-22T17:17:42.827Z,688.53
2023-04-22T17:20:09.780Z,691.75
2023-04-22T17:22:36.294Z,666.40
2023-04-22T17:25:02.839Z,678.10
2023-04-22T17:27:29.319Z,659.20
2023-04-22T17:29:56.093Z,651.10
2023-04-22T17:32:22.553Z,631.45
2023-04-22T17:34:49.053Z,598.90
2023-04-22T17:37:15.434Z,606.58
2023-04-22T17:39:41.971Z,598.40
2023-04-22T17:42:08.386Z,565.85
2023-04-22T17:44:35.513Z,516.00
2023-04-22T17:47:01.879Z,473.90
2023-04-22T17:49:28.300Z,446.45
2023-04-22T17:51:54.764Z,477.92
2023-04-22T17:54:21.390Z,470.70
2023-04-22T17:56:47.785Z,459.17
2023-04-22T17:59:14.318Z,441.60
2023-04-22T18:01:40.836Z,423.30
2023-04-22T18:04:07.420Z,418.05
2023-04-22T18:06:33.922Z,380.52
2023-04-22T18:09:00.406Z,433.70
2023-04-22T18:11:27.832Z,368.17
2023-04-22T18:13:54.831Z,457.20
2023-04-22T18:16:21.539Z,601.22
2023-04-22T18:18:47.880Z,688.90
2023-04-22T18:21:14.207Z,757.55
2023-04-22T18:23:40.684Z,761.10
2023-04-22T18:26:11.134Z,810.67
2023-04-22T18:28:40.095Z,824.97
2023-04-22T18:31:09.466Z,843.70
2023-04-22T18:33:36.353Z,840.83
2023-04-22T18:36:02.765Z,848.65
2023-04-22T18:38:29.189Z,856.33
2023-04-22T18:40:56.107Z,897.55
2023-04-22T18:43:22.600Z,881.95
2023-04-22T18:45:49.032Z,909.45
2023-04-22T18:48:15.988Z,902.88
2023-04-22T18:50:42.934Z,905.70
2023-04-22T18:53:09.383Z,907.45
2023-04-22T18:55:35.785Z,913.13
2023-04-22T18:58:02.247Z,899.47
2023-04-22T19:00:29.013Z,892.90
2023-04-22T19:02:55.567Z,899.70
2023-04-22T19:05:24.379Z,876.90
2023-04-22T19:07:50.931Z,863.05
2023-04-22T19:10:17.558Z,874.58
2023-04-22T19:12:43.902Z,865.13
2023-04-22T19:15:10.874Z,837.88
2023-04-22T19:17:38.068Z,798.65
2023-04-22T19:20:05.749Z,803.78
2023-04-22T19:22:32.228Z,754.30
2023-04-22T19:24:59.000Z,752.88
2023-04-22T19:27:25.708Z,724.67
2023-04-22T19:29:53.339Z,745.08
2023-04-22T19:32:20.931Z,701.70
2023-04-22T19:34:47.711Z,653.45
2023-04-22T19:37:14.226Z,639.38
2023-04-22T19:39:40.734Z,567.85
2023-04-22T19:42:07.612Z,584.60
2023-04-22T19:44:34.293Z,497.17
2023-04-22T19:47:01.214Z,366.42
2023-04-22T19:49:27.960Z,287.75
2023-04-22T19:51:55.361Z,266.50
2023-04-22T19:54:21.975Z,264.60
2023-04-22T19:56:49.016Z,297.02
2023-04-22T19:59:15.941Z,289.52
2023-04-22T20:01:42.625Z,275.27
2023-04-22T20:04:09.544Z,243.00
2023-04-22T20:06:36.408Z,260.55
2023-04-22T20:09:05.275Z,271.15
2023-04-22T20:11:32.536Z,262.02
2023-04-22T20:13:59.891Z,223.25
2023-04-22T20:16:26.934Z,224.85
2023-04-22T20:18:54.354Z,270.73
2023-04-22T20:21:21.128Z,281.65
2023-04-22T20:23:49.689Z,269.23
2023-04-22T20:26:20.146Z,225.70
2023-04-22T20:28:51.659Z,209.68
2023-04-22T20:31:20.335Z,191.77
2023-04-22T20:33:46.912Z,192.75
2023-04-22T20:36:15.216Z,186.93
2023-04-22T20:38:43.083Z,154.65
2023-04-22T20:41:10.112Z,156.63
2023-04-22T20:43:36.539Z,145.05
2023-04-22T20:46:03.233Z,170.65
2023-04-22T20:48:29.743Z,149.70
2023-04-22T20:50:56.134Z,150.45
2023-04-22T20:53:23.672Z,141.88
2023-04-22T20:55:50.860Z,145.65
2023-04-22T20:58:17.222Z,128.38
2023-04-22T21:00:43.858Z,122.47
2023-04-22T21:03:10.910Z,129.10
2023-04-22T21:05:41.984Z,125.07
2023-04-22T21:08:23.131Z,119.65
2023-04-22T21:10:52.064Z,121.68
2023-04-22T21:13:19.206Z,123.72
2023-04-22T21:15:59.084Z,127.13
2023-04-22T21:18:27.945Z,122.57
2023-04-22T21:20:56.237Z,119.97
2023-04-22T21:23:26.701Z,123.82
2023-04-22T21:25:57.169Z,126.25
2023-04-22T21:28:24.070Z,129.98
2023-04-22T21:30:50.847Z,126.72
2023-04-22T21:33:17.227Z,126.63
2023-04-22T21:35:43.755Z,117.95
2023-04-22T21:38:10.222Z,124.13
2023-04-22T21:40:36.991Z,124.20
2023-04-22T21:43:04.612Z,118.70
2023-04-22T21:45:31.247Z,128.05
2023-04-22T21:48:00.606Z,124.80
2023-04-22T21:50:27.457Z,115.90
2023-04-22T21:52:54.056Z,117.85
2023-04-22T21:55:20.566Z,115.40
2023-04-22T21:57:47.004Z,114.88
2023-04-22T22:00:18.232Z,112.28
2023-04-22T22:02:45.865Z,120.38
2023-04-22T22:05:14.221Z,124.10
2023-04-22T22:07:41.742Z,119.00
2023-04-22T22:10:10.572Z,114.43
2023-04-22T22:12:37.110Z,118.15
2023-04-22T22:15:05.486Z,120.28
2023-04-22T22:17:32.258Z,117.20
2023-04-22T22:19:58.739Z,124.50
2023-04-22T22:22:25.168Z,121.22
2023-04-22T22:24:52.733Z,124.45
2023-04-22T22:27:19.561Z,121.18
2023-04-22T22:29:46.454Z,120.75
2023-04-22T22:32:13.087Z,121.03
2023-04-22T22:34:39.810Z,120.30
2023-04-22T22:37:06.445Z,123.95
2023-04-22T22:39:32.796Z,121.90
2023-04-22T22:41:59.668Z,115.70
2023-04-22T22:44:26.022Z,128.50
2023-04-22T22:46:52.430Z,119.65
2023-04-22T22:49:18.835Z,126.25
2023-04-22T22:51:45.254Z,125.43
2023-04-22T22:54:11.669Z,117.43
2023-04-22T22:56:38.482Z,123.78
2023-04-22T22:59:04.904Z,119.50
2023-04-22T23:01:31.307Z,101.00
2023-04-22T23:03:57.974Z,92.82
2023-04-22T23:06:24.464Z,87.45
2023-04-22T23:08:50.993Z,81.93
2023-04-22T23:11:17.389Z,82.15
2023-04-22T23:13:44.118Z,85.82
2023-04-22T23:16:10.746Z,88.80
2023-04-22T23:18:37.794Z,95.53
2023-04-22T23:21:04.754Z,87.45
2023-04-22T23:23:32.405Z,90.28
2023-04-22T23:26:00.791Z,86.60
2023-04-22T23:28:27.784Z,86.55
2023-04-22T23:30:55.943Z,84.40
2023-04-22T23:33:25.075Z,79.07
2023-04-22T23:35:53.172Z,80.07
2023-04-22T23:38:19.612Z,76.53
2023-04-22T23:40:45.964Z,75.15
2023-04-22T23:43:12.414Z,67.63
2023-04-22T23:45:39.024Z,73.32
2023-04-22T23:48:05.425Z,76.35
2023-04-22T23:50:31.848Z,81.40
2023-04-22T23:52:58.197Z,83.85
2023-04-22T23:55:25.936Z,76.68
2023-04-22T23:57:52.613Z,74.93
